sensor_id;sensor_type;location;lat;lon;timestamp;P1;durP1;ratioP1;P2;durP2;ratioP2
62543;SDS011;48597;49.030;1.822;2023-06-19T00:00:12;1.67;;;1.15;;
62543;SDS011;48597;49.030;1.822;2023-06-19T00:02:42;1.38;;;1.20;;
62543;SDS011;48597;49.030;1.822;2023-06-19T00:05:08;1.40;;;0.90;;
62543;SDS011;48597;49.030;1.822;2023-06-19T00:07:38;1.88;;;0.90;;
62543;SDS011;48597;49.030;1.822;2023-06-19T00:10:04;1.80;;;1.10;;
62543;SDS011;48597;49.030;1.822;2023-06-19T00:12:30;1.10;;;1.00;;
62543;SDS011;48597;49.030;1.822;2023-06-19T00:14:55;2.75;;;1.00;;
62543;SDS011;48597;49.030;1.822;2023-06-19T00:17:21;2.65;;;1.08;;
62543;SDS011;48597;49.030;1.822;2023-06-19T00:19:46;2.15;;;1.02;;
62543;SDS011;48597;49.030;1.822;2023-06-19T00:22:13;1.58;;;0.90;;
62543;SDS011;48597;49.030;1.822;2023-06-19T00:24:40;1.45;;;1.10;;
62543;SDS011;48597;49.030;1.822;2023-06-19T00:27:05;2.45;;;1.02;;
62543;SDS011;48597;49.030;1.822;2023-06-19T00:29:31;3.03;;;1.20;;
62543;SDS011;48597;49.030;1.822;2023-06-19T00:31:58;2.45;;;1.10;;
62543;SDS011;48597;49.030;1.822;2023-06-19T00:34:24;1.52;;;0.90;;
62543;SDS011;48597;49.030;1.822;2023-06-19T00:36:50;2.67;;;0.90;;
62543;SDS011;48597;49.030;1.822;2023-06-19T00:39:16;1.40;;;0.93;;
62543;SDS011;48597;49.030;1.822;2023-06-19T00:41:42;3.30;;;1.10;;
62543;SDS011;48597;49.030;1.822;2023-06-19T00:44:09;2.60;;;1.02;;
62543;SDS011;48597;49.030;1.822;2023-06-19T00:46:40;1.20;;;1.00;;
62543;SDS011;48597;49.030;1.822;2023-06-19T00:49:06;1.67;;;0.90;;
62543;SDS011;48597;49.030;1.822;2023-06-19T00:51:32;1.58;;;0.90;;
62543;SDS011;48597;49.030;1.822;2023-06-19T00:53:58;3.17;;;1.00;;
62543;SDS011;48597;49.030;1.822;2023-06-19T00:56:24;3.00;;;0.95;;
62543;SDS011;48597;49.030;1.822;2023-06-19T00:58:57;1.65;;;0.98;;
62543;SDS011;48597;49.030;1.822;2023-06-19T01:01:22;1.95;;;1.10;;
62543;SDS011;48597;49.030;1.822;2023-06-19T01:03:51;1.50;;;1.00;;
62543;SDS011;48597;49.030;1.822;2023-06-19T01:06:17;1.33;;;0.98;;
62543;SDS011;48597;49.030;1.822;2023-06-19T01:09:01;1.83;;;1.10;;
62543;SDS011;48597;49.030;1.822;2023-06-19T01:11:33;1.40;;;0.95;;
62543;SDS011;48597;49.030;1.822;2023-06-19T01:14:06;1.35;;;1.00;;
62543;SDS011;48597;49.030;1.822;2023-06-19T01:16:37;1.02;;;1.02;;
62543;SDS011;48597;49.030;1.822;2023-06-19T01:19:04;1.10;;;1.00;;
62543;SDS011;48597;49.030;1.822;2023-06-19T01:21:34;1.23;;;1.05;;
62543;SDS011;48597;49.030;1.822;2023-06-19T01:24:01;1.77;;;0.93;;
62543;SDS011;48597;49.030;1.822;2023-06-19T01:26:28;0.90;;;0.80;;
62543;SDS011;48597;49.030;1.822;2023-06-19T01:28:54;2.30;;;1.02;;
62543;SDS011;48597;49.030;1.822;2023-06-19T01:31:21;1.52;;;1.10;;
62543;SDS011;48597;49.030;1.822;2023-06-19T01:33:52;1.35;;;1.10;;
62543;SDS011;48597;49.030;1.822;2023-06-19T01:36:20;2.75;;;1.40;;
62543;SDS011;48597;49.030;1.822;2023-06-19T01:38:47;1.98;;;1.20;;
62543;SDS011;48597;49.030;1.822;2023-06-19T01:41:14;2.22;;;1.13;;
62543;SDS011;48597;49.030;1.822;2023-06-19T01:43:41;1.90;;;1.33;;
62543;SDS011;48597;49.030;1.822;2023-06-19T01:46:07;2.42;;;1.30;;
62543;SDS011;48597;49.030;1.822;2023-06-19T01:48:32;2.38;;;1.65;;
62543;SDS011;48597;49.030;1.822;2023-06-19T01:51:02;2.95;;;1.50;;
62543;SDS011;48597;49.030;1.822;2023-06-19T01:53:29;1.67;;;1.55;;
62543;SDS011;48597;49.030;1.822;2023-06-19T01:55:55;2.88;;;1.45;;
62543;SDS011;48597;49.030;1.822;2023-06-19T01:58:21;1.80;;;1.30;;
62543;SDS011;48597;49.030;1.822;2023-06-19T02:00:46;1.98;;;1.60;;
62543;SDS011;48597;49.030;1.822;2023-06-19T02:03:12;3.33;;;1.60;;
62543;SDS011;48597;49.030;1.822;2023-06-19T02:05:37;2.55;;;1.40;;
62543;SDS011;48597;49.030;1.822;2023-06-19T02:08:04;3.97;;;1.60;;
62543;SDS011;48597;49.030;1.822;2023-06-19T02:10:30;1.80;;;1.50;;
62543;SDS011;48597;49.030;1.822;2023-06-19T02:12:55;1.80;;;1.70;;
62543;SDS011;48597;49.030;1.822;2023-06-19T02:15:21;2.25;;;1.50;;
62543;SDS011;48597;49.030;1.822;2023-06-19T02:17:46;3.08;;;2.00;;
62543;SDS011;48597;49.030;1.822;2023-06-19T02:20:12;2.58;;;1.70;;
62543;SDS011;48597;49.030;1.822;2023-06-19T02:22:38;2.58;;;1.77;;
62543;SDS011;48597;49.030;1.822;2023-06-19T02:25:04;2.38;;;1.88;;
62543;SDS011;48597;49.030;1.822;2023-06-19T02:27:31;2.17;;;1.90;;
62543;SDS011;48597;49.030;1.822;2023-06-19T02:29:56;4.65;;;1.90;;
62543;SDS011;48597;49.030;1.822;2023-06-19T02:32:22;4.45;;;1.70;;
62543;SDS011;48597;49.030;1.822;2023-06-19T02:34:47;3.35;;;1.83;;
62543;SDS011;48597;49.030;1.822;2023-06-19T02:37:13;2.75;;;1.90;;
62543;SDS011;48597;49.030;1.822;2023-06-19T02:39:38;3.90;;;1.90;;
62543;SDS011;48597;49.030;1.822;2023-06-19T02:42:04;3.22;;;1.67;;
62543;SDS011;48597;49.030;1.822;2023-06-19T02:44:30;3.80;;;1.92;;
62543;SDS011;48597;49.030;1.822;2023-06-19T02:46:55;2.20;;;1.67;;
62543;SDS011;48597;49.030;1.822;2023-06-19T02:49:20;2.30;;;2.10;;
62543;SDS011;48597;49.030;1.822;2023-06-19T02:51:46;3.17;;;1.70;;
62543;SDS011;48597;49.030;1.822;2023-06-19T02:54:11;3.22;;;2.00;;
62543;SDS011;48597;49.030;1.822;2023-06-19T02:56:37;2.15;;;1.83;;
62543;SDS011;48597;49.030;1.822;2023-06-19T02:59:03;6.35;;;2.42;;
62543;SDS011;48597;49.030;1.822;2023-06-19T03:01:29;2.92;;;1.75;;
62543;SDS011;48597;49.030;1.822;2023-06-19T03:03:55;3.88;;;2.10;;
62543;SDS011;48597;49.030;1.822;2023-06-19T03:06:20;3.33;;;1.85;;
62543;SDS011;48597;49.030;1.822;2023-06-19T03:08:45;3.17;;;1.95;;
62543;SDS011;48597;49.030;1.822;2023-06-19T03:11:11;3.60;;;2.08;;
62543;SDS011;48597;49.030;1.822;2023-06-19T03:13:53;3.08;;;1.77;;
62543;SDS011;48597;49.030;1.822;2023-06-19T03:16:19;1.90;;;1.80;;
62543;SDS011;48597;49.030;1.822;2023-06-19T03:18:46;3.00;;;1.90;;
62543;SDS011;48597;49.030;1.822;2023-06-19T03:21:15;2.60;;;1.85;;
62543;SDS011;48597;49.030;1.822;2023-06-19T03:23:40;3.13;;;2.10;;
62543;SDS011;48597;49.030;1.822;2023-06-19T03:26:06;4.10;;;2.10;;
62543;SDS011;48597;49.030;1.822;2023-06-19T03:28:32;4.25;;;2.03;;
62543;SDS011;48597;49.030;1.822;2023-06-19T03:30:58;5.30;;;2.03;;
62543;SDS011;48597;49.030;1.822;2023-06-19T03:33:23;3.45;;;2.15;;
62543;SDS011;48597;49.030;1.822;2023-06-19T03:35:49;2.97;;;2.30;;
62543;SDS011;48597;49.030;1.822;2023-06-19T03:38:14;3.60;;;1.83;;
62543;SDS011;48597;49.030;1.822;2023-06-19T03:40:40;3.25;;;2.30;;
62543;SDS011;48597;49.030;1.822;2023-06-19T03:43:05;5.32;;;2.10;;
62543;SDS011;48597;49.030;1.822;2023-06-19T03:45:31;3.40;;;2.13;;
62543;SDS011;48597;49.030;1.822;2023-06-19T03:47:56;3.58;;;2.10;;
62543;SDS011;48597;49.030;1.822;2023-06-19T03:50:22;3.53;;;2.10;;
62543;SDS011;48597;49.030;1.822;2023-06-19T03:52:47;2.72;;;1.90;;
62543;SDS011;48597;49.030;1.822;2023-06-19T03:55:12;3.50;;;2.00;;
62543;SDS011;48597;49.030;1.822;2023-06-19T03:57:38;3.15;;;2.42;;
62543;SDS011;48597;49.030;1.822;2023-06-19T04:00:03;2.30;;;2.00;;
62543;SDS011;48597;49.030;1.822;2023-06-19T04:02:33;3.67;;;1.88;;
62543;SDS011;48597;49.030;1.822;2023-06-19T04:04:59;5.68;;;2.17;;
62543;SDS011;48597;49.030;1.822;2023-06-19T04:07:25;2.63;;;2.40;;
62543;SDS011;48597;49.030;1.822;2023-06-19T04:09:50;3.40;;;2.15;;
62543;SDS011;48597;49.030;1.822;2023-06-19T04:12:15;3.45;;;1.95;;
62543;SDS011;48597;49.030;1.822;2023-06-19T04:14:41;3.90;;;1.90;;
62543;SDS011;48597;49.030;1.822;2023-06-19T04:17:06;3.20;;;1.90;;
62543;SDS011;48597;49.030;1.822;2023-06-19T04:19:32;3.08;;;2.00;;
62543;SDS011;48597;49.030;1.822;2023-06-19T04:21:57;2.97;;;1.65;;
62543;SDS011;48597;49.030;1.822;2023-06-19T04:24:22;4.53;;;2.00;;
62543;SDS011;48597;49.030;1.822;2023-06-19T04:26:48;4.65;;;1.85;;
62543;SDS011;48597;49.030;1.822;2023-06-19T04:29:13;3.53;;;2.00;;
62543;SDS011;48597;49.030;1.822;2023-06-19T04:31:43;4.38;;;1.95;;
62543;SDS011;48597;49.030;1.822;2023-06-19T04:34:11;3.13;;;1.63;;
62543;SDS011;48597;49.030;1.822;2023-06-19T04:36:49;4.93;;;1.85;;
62543;SDS011;48597;49.030;1.822;2023-06-19T04:39:15;2.33;;;1.70;;
62543;SDS011;48597;49.030;1.822;2023-06-19T04:41:43;3.55;;;1.83;;
62543;SDS011;48597;49.030;1.822;2023-06-19T04:44:09;4.40;;;1.83;;
62543;SDS011;48597;49.030;1.822;2023-06-19T04:46:38;2.65;;;1.70;;
62543;SDS011;48597;49.030;1.822;2023-06-19T04:49:04;4.78;;;1.70;;
62543;SDS011;48597;49.030;1.822;2023-06-19T04:51:30;2.60;;;1.60;;
62543;SDS011;48597;49.030;1.822;2023-06-19T04:53:57;4.45;;;1.90;;
62543;SDS011;48597;49.030;1.822;2023-06-19T04:56:26;1.63;;;1.52;;
62543;SDS011;48597;49.030;1.822;2023-06-19T04:58:51;1.85;;;1.65;;
62543;SDS011;48597;49.030;1.822;2023-06-19T05:01:17;1.70;;;1.42;;
62543;SDS011;48597;49.030;1.822;2023-06-19T05:03:43;1.70;;;1.60;;
62543;SDS011;48597;49.030;1.822;2023-06-19T05:06:11;1.83;;;1.60;;
62543;SDS011;48597;49.030;1.822;2023-06-19T05:08:36;1.65;;;1.55;;
62543;SDS011;48597;49.030;1.822;2023-06-19T05:11:02;2.03;;;1.80;;
62543;SDS011;48597;49.030;1.822;2023-06-19T05:13:27;2.50;;;1.63;;
62543;SDS011;48597;49.030;1.822;2023-06-19T05:15:52;2.05;;;1.50;;
62543;SDS011;48597;49.030;1.822;2023-06-19T05:18:18;2.28;;;1.65;;
62543;SDS011;48597;49.030;1.822;2023-06-19T05:20:44;2.55;;;1.60;;
62543;SDS011;48597;49.030;1.822;2023-06-19T05:23:09;1.85;;;1.60;;
62543;SDS011;48597;49.030;1.822;2023-06-19T05:25:35;1.85;;;1.50;;
62543;SDS011;48597;49.030;1.822;2023-06-19T05:28:01;2.45;;;1.70;;
62543;SDS011;48597;49.030;1.822;2023-06-19T05:30:26;1.50;;;1.40;;
62543;SDS011;48597;49.030;1.822;2023-06-19T05:32:51;1.83;;;1.50;;
62543;SDS011;48597;49.030;1.822;2023-06-19T05:35:17;1.75;;;1.65;;
62543;SDS011;48597;49.030;1.822;2023-06-19T05:37:42;1.77;;;1.50;;
62543;SDS011;48597;49.030;1.822;2023-06-19T05:40:09;1.70;;;1.60;;
62543;SDS011;48597;49.030;1.822;2023-06-19T05:42:35;1.77;;;1.60;;
62543;SDS011;48597;49.030;1.822;2023-06-19T05:45:01;2.38;;;1.60;;
62543;SDS011;48597;49.030;1.822;2023-06-19T05:47:27;2.35;;;1.42;;
62543;SDS011;48597;49.030;1.822;2023-06-19T05:49:54;2.65;;;1.77;;
62543;SDS011;48597;49.030;1.822;2023-06-19T05:52:19;1.85;;;1.50;;
62543;SDS011;48597;49.030;1.822;2023-06-19T05:54:46;2.22;;;1.52;;
62543;SDS011;48597;49.030;1.822;2023-06-19T05:57:11;2.03;;;1.40;;
62543;SDS011;48597;49.030;1.822;2023-06-19T05:59:36;1.73;;;1.63;;
62543;SDS011;48597;49.030;1.822;2023-06-19T06:02:02;2.00;;;1.60;;
62543;SDS011;48597;49.030;1.822;2023-06-19T06:04:28;1.80;;;1.63;;
62543;SDS011;48597;49.030;1.822;2023-06-19T06:06:55;1.70;;;1.60;;
62543;SDS011;48597;49.030;1.822;2023-06-19T06:09:21;2.60;;;1.85;;
62543;SDS011;48597;49.030;1.822;2023-06-19T06:11:46;2.20;;;1.73;;
62543;SDS011;48597;49.030;1.822;2023-06-19T06:14:12;3.15;;;1.75;;
62543;SDS011;48597;49.030;1.822;2023-06-19T06:16:37;1.77;;;1.63;;
62543;SDS011;48597;49.030;1.822;2023-06-19T06:19:03;2.03;;;1.70;;
62543;SDS011;48597;49.030;1.822;2023-06-19T06:21:28;3.10;;;1.70;;
62543;SDS011;48597;49.030;1.822;2023-06-19T06:23:54;1.98;;;1.77;;
62543;SDS011;48597;49.030;1.822;2023-06-19T06:26:19;1.85;;;1.75;;
62543;SDS011;48597;49.030;1.822;2023-06-19T06:28:45;1.90;;;1.70;;
62543;SDS011;48597;49.030;1.822;2023-06-19T06:31:10;1.65;;;1.55;;
62543;SDS011;48597;49.030;1.822;2023-06-19T06:33:36;2.05;;;1.85;;
62543;SDS011;48597;49.030;1.822;2023-06-19T06:36:01;2.35;;;1.52;;
62543;SDS011;48597;49.030;1.822;2023-06-19T06:38:27;1.65;;;1.55;;
62543;SDS011;48597;49.030;1.822;2023-06-19T06:40:52;2.20;;;1.80;;
62543;SDS011;48597;49.030;1.822;2023-06-19T06:43:18;1.95;;;1.85;;
62543;SDS011;48597;49.030;1.822;2023-06-19T06:45:43;2.33;;;2.08;;
62543;SDS011;48597;49.030;1.822;2023-06-19T06:48:09;1.70;;;1.48;;
62543;SDS011;48597;49.030;1.822;2023-06-19T06:50:34;1.67;;;1.58;;
62543;SDS011;48597;49.030;1.822;2023-06-19T06:53:00;2.97;;;1.73;;
62543;SDS011;48597;49.030;1.822;2023-06-19T06:55:26;2.08;;;1.85;;
62543;SDS011;48597;49.030;1.822;2023-06-19T06:57:51;2.00;;;1.83;;
62543;SDS011;48597;49.030;1.822;2023-06-19T07:00:17;1.80;;;1.70;;
62543;SDS011;48597;49.030;1.822;2023-06-19T07:02:43;2.22;;;1.70;;
62543;SDS011;48597;49.030;1.822;2023-06-19T07:05:09;1.77;;;1.67;;
62543;SDS011;48597;49.030;1.822;2023-06-19T07:07:35;2.60;;;1.80;;
62543;SDS011;48597;49.030;1.822;2023-06-19T07:10:02;1.77;;;1.65;;
62543;SDS011;48597;49.030;1.822;2023-06-19T07:12:27;1.88;;;1.77;;
62543;SDS011;48597;49.030;1.822;2023-06-19T07:14:53;2.40;;;1.65;;
62543;SDS011;48597;49.030;1.822;2023-06-19T07:17:19;1.88;;;1.73;;
62543;SDS011;48597;49.030;1.822;2023-06-19T07:19:45;1.70;;;1.60;;
62543;SDS011;48597;49.030;1.822;2023-06-19T07:22:10;2.03;;;1.83;;
62543;SDS011;48597;49.030;1.822;2023-06-19T07:24:36;1.92;;;1.83;;
62543;SDS011;48597;49.030;1.822;2023-06-19T07:27:01;2.00;;;1.80;;
62543;SDS011;48597;49.030;1.822;2023-06-19T07:29:26;3.38;;;1.98;;
62543;SDS011;48597;49.030;1.822;2023-06-19T07:31:52;2.50;;;1.88;;
62543;SDS011;48597;49.030;1.822;2023-06-19T07:34:17;1.90;;;1.75;;
62543;SDS011;48597;49.030;1.822;2023-06-19T07:36:43;2.50;;;1.90;;
62543;SDS011;48597;49.030;1.822;2023-06-19T07:39:08;2.92;;;1.73;;
62543;SDS011;48597;49.030;1.822;2023-06-19T07:41:34;2.53;;;1.95;;
62543;SDS011;48597;49.030;1.822;2023-06-19T07:44:00;2.20;;;1.98;;
62543;SDS011;48597;49.030;1.822;2023-06-19T07:46:25;1.90;;;1.80;;
62543;SDS011;48597;49.030;1.822;2023-06-19T07:48:51;2.85;;;2.00;;
62543;SDS011;48597;49.030;1.822;2023-06-19T07:51:16;1.70;;;1.60;;
62543;SDS011;48597;49.030;1.822;2023-06-19T07:53:41;2.20;;;2.00;;
62543;SDS011;48597;49.030;1.822;2023-06-19T07:56:08;2.75;;;1.75;;
62543;SDS011;48597;49.030;1.822;2023-06-19T07:58:34;2.05;;;1.83;;
62543;SDS011;48597;49.030;1.822;2023-06-19T08:01:00;1.70;;;1.60;;
62543;SDS011;48597;49.030;1.822;2023-06-19T08:03:26;2.90;;;2.10;;
62543;SDS011;48597;49.030;1.822;2023-06-19T08:05:52;2.60;;;1.88;;
62543;SDS011;48597;49.030;1.822;2023-06-19T08:08:18;1.85;;;1.75;;
62543;SDS011;48597;49.030;1.822;2023-06-19T08:10:43;2.00;;;1.80;;
62543;SDS011;48597;49.030;1.822;2023-06-19T08:13:08;2.17;;;1.98;;
62543;SDS011;48597;49.030;1.822;2023-06-19T08:15:36;2.28;;;2.08;;
62543;SDS011;48597;49.030;1.822;2023-06-19T08:18:01;2.20;;;2.00;;
62543;SDS011;48597;49.030;1.822;2023-06-19T08:20:27;2.20;;;2.00;;
62543;SDS011;48597;49.030;1.822;2023-06-19T08:22:53;2.30;;;2.10;;
62543;SDS011;48597;49.030;1.822;2023-06-19T08:25:18;2.15;;;1.95;;
62543;SDS011;48597;49.030;1.822;2023-06-19T08:27:44;1.92;;;1.73;;
62543;SDS011;48597;49.030;1.822;2023-06-19T08:30:10;2.33;;;2.13;;
62543;SDS011;48597;49.030;1.822;2023-06-19T08:32:35;2.38;;;2.17;;
62543;SDS011;48597;49.030;1.822;2023-06-19T08:35:01;4.15;;;2.80;;
62543;SDS011;48597;49.030;1.822;2023-06-19T08:37:27;2.08;;;1.88;;
62543;SDS011;48597;49.030;1.822;2023-06-19T08:39:53;2.40;;;2.20;;
62543;SDS011;48597;49.030;1.822;2023-06-19T08:42:21;3.97;;;2.30;;
62543;SDS011;48597;49.030;1.822;2023-06-19T08:44:47;4.20;;;2.30;;
62543;SDS011;48597;49.030;1.822;2023-06-19T08:47:12;3.03;;;2.30;;
62543;SDS011;48597;49.030;1.822;2023-06-19T08:49:38;2.30;;;2.10;;
62543;SDS011;48597;49.030;1.822;2023-06-19T08:52:04;2.80;;;2.20;;
62543;SDS011;48597;49.030;1.822;2023-06-19T08:54:30;2.58;;;2.08;;
62543;SDS011;48597;49.030;1.822;2023-06-19T08:56:59;2.75;;;1.98;;
62543;SDS011;48597;49.030;1.822;2023-06-19T08:59:25;2.90;;;2.17;;
62543;SDS011;48597;49.030;1.822;2023-06-19T09:01:52;3.33;;;2.22;;
62543;SDS011;48597;49.030;1.822;2023-06-19T09:04:19;2.90;;;1.95;;
62543;SDS011;48597;49.030;1.822;2023-06-19T09:07:00;3.97;;;2.28;;
62543;SDS011;48597;49.030;1.822;2023-06-19T09:09:27;2.75;;;2.53;;
62543;SDS011;48597;49.030;1.822;2023-06-19T09:12:00;2.42;;;2.20;;
62543;SDS011;48597;49.030;1.822;2023-06-19T09:16:57;2.70;;;2.50;;
62543;SDS011;48597;49.030;1.822;2023-06-19T09:19:22;3.67;;;2.50;;
62543;SDS011;48597;49.030;1.822;2023-06-19T09:21:48;2.80;;;2.38;;
62543;SDS011;48597;49.030;1.822;2023-06-19T09:24:13;2.90;;;2.40;;
62543;SDS011;48597;49.030;1.822;2023-06-19T09:26:39;2.33;;;2.13;;
62543;SDS011;48597;49.030;1.822;2023-06-19T09:29:14;3.50;;;2.35;;
62543;SDS011;48597;49.030;1.822;2023-06-19T09:31:43;2.60;;;2.40;;
62543;SDS011;48597;49.030;1.822;2023-06-19T09:34:08;2.35;;;2.15;;
62543;SDS011;48597;49.030;1.822;2023-06-19T09:36:34;3.60;;;2.50;;
62543;SDS011;48597;49.030;1.822;2023-06-19T09:39:02;2.90;;;2.30;;
62543;SDS011;48597;49.030;1.822;2023-06-19T09:41:28;3.20;;;2.55;;
62543;SDS011;48597;49.030;1.822;2023-06-19T09:43:55;3.33;;;2.38;;
62543;SDS011;48597;49.030;1.822;2023-06-19T09:46:29;2.50;;;2.25;;
62543;SDS011;48597;49.030;1.822;2023-06-19T09:48:58;2.60;;;2.40;;
62543;SDS011;48597;49.030;1.822;2023-06-19T09:51:37;4.05;;;2.70;;
62543;SDS011;48597;49.030;1.822;2023-06-19T09:54:05;3.35;;;2.65;;
62543;SDS011;48597;49.030;1.822;2023-06-19T09:56:32;2.63;;;2.42;;
62543;SDS011;48597;49.030;1.822;2023-06-19T09:58:57;3.42;;;2.55;;
62543;SDS011;48597;49.030;1.822;2023-06-19T10:01:25;4.53;;;2.70;;
62543;SDS011;48597;49.030;1.822;2023-06-19T10:04:01;3.17;;;2.88;;
62543;SDS011;48597;49.030;1.822;2023-06-19T10:06:31;2.90;;;2.63;;
62543;SDS011;48597;49.030;1.822;2023-06-19T10:09:05;4.65;;;2.88;;
62543;SDS011;48597;49.030;1.822;2023-06-19T10:11:47;2.92;;;2.53;;
62543;SDS011;48597;49.030;1.822;2023-06-19T10:14:13;3.92;;;2.70;;
62543;SDS011;48597;49.030;1.822;2023-06-19T10:16:40;2.70;;;2.50;;
62543;SDS011;48597;49.030;1.822;2023-06-19T10:19:13;3.45;;;2.90;;
62543;SDS011;48597;49.030;1.822;2023-06-19T10:21:49;3.00;;;2.72;;
62543;SDS011;48597;49.030;1.822;2023-06-19T10:24:16;3.67;;;2.90;;
62543;SDS011;48597;49.030;1.822;2023-06-19T10:26:55;3.08;;;2.72;;
62543;SDS011;48597;49.030;1.822;2023-06-19T10:29:23;3.05;;;2.45;;
62543;SDS011;48597;49.030;1.822;2023-06-19T10:31:49;3.17;;;2.80;;
62543;SDS011;48597;49.030;1.822;2023-06-19T10:34:15;3.72;;;2.67;;
62543;SDS011;48597;49.030;1.822;2023-06-19T10:36:40;3.22;;;2.60;;
62543;SDS011;48597;49.030;1.822;2023-06-19T10:39:05;3.03;;;2.70;;
62543;SDS011;48597;49.030;1.822;2023-06-19T10:41:32;3.10;;;2.80;;
62543;SDS011;48597;49.030;1.822;2023-06-19T10:43:58;4.07;;;2.60;;
62543;SDS011;48597;49.030;1.822;2023-06-19T10:46:29;2.50;;;2.30;;
62543;SDS011;48597;49.030;1.822;2023-06-19T10:49:01;2.95;;;2.75;;
62543;SDS011;48597;49.030;1.822;2023-06-19T10:51:29;3.30;;;2.97;;
62543;SDS011;48597;49.030;1.822;2023-06-19T10:53:56;3.10;;;2.80;;
62543;SDS011;48597;49.030;1.822;2023-06-19T10:56:22;3.83;;;2.85;;
62543;SDS011;48597;49.030;1.822;2023-06-19T10:58:56;3.38;;;2.95;;
62543;SDS011;48597;49.030;1.822;2023-06-19T11:01:32;4.60;;;2.67;;
62543;SDS011;48597;49.030;1.822;2023-06-19T11:03:59;2.95;;;2.75;;
62543;SDS011;48597;49.030;1.822;2023-06-19T11:06:24;2.85;;;2.65;;
62543;SDS011;48597;49.030;1.822;2023-06-19T11:08:53;3.08;;;2.78;;
62543;SDS011;48597;49.030;1.822;2023-06-19T11:11:18;2.83;;;2.58;;
62543;SDS011;48597;49.030;1.822;2023-06-19T11:13:45;2.95;;;2.65;;
62543;SDS011;48597;49.030;1.822;2023-06-19T11:16:10;4.07;;;2.90;;
62543;SDS011;48597;49.030;1.822;2023-06-19T11:18:36;3.42;;;2.72;;
62543;SDS011;48597;49.030;1.822;2023-06-19T11:21:01;3.00;;;2.67;;
62543;SDS011;48597;49.030;1.822;2023-06-19T11:23:28;3.13;;;2.70;;
62543;SDS011;48597;49.030;1.822;2023-06-19T11:26:01;3.60;;;2.60;;
62543;SDS011;48597;49.030;1.822;2023-06-19T11:28:28;2.80;;;2.40;;
62543;SDS011;48597;49.030;1.822;2023-06-19T11:31:00;3.45;;;2.72;;
62543;SDS011;48597;49.030;1.822;2023-06-19T11:33:27;2.63;;;2.28;;
62543;SDS011;48597;49.030;1.822;2023-06-19T11:35:54;3.58;;;2.45;;
62543;SDS011;48597;49.030;1.822;2023-06-19T11:38:20;4.20;;;2.78;;
62543;SDS011;48597;49.030;1.822;2023-06-19T11:40:47;3.00;;;2.70;;
62543;SDS011;48597;49.030;1.822;2023-06-19T11:43:34;3.55;;;2.78;;
62543;SDS011;48597;49.030;1.822;2023-06-19T11:46:04;3.25;;;2.40;;
62543;SDS011;48597;49.030;1.822;2023-06-19T11:48:30;4.28;;;2.45;;
62543;SDS011;48597;49.030;1.822;2023-06-19T11:50:55;3.35;;;2.50;;
62543;SDS011;48597;49.030;1.822;2023-06-19T11:53:21;2.92;;;2.60;;
62543;SDS011;48597;49.030;1.822;2023-06-19T11:55:48;3.00;;;2.70;;
62543;SDS011;48597;49.030;1.822;2023-06-19T11:58:14;4.32;;;2.70;;
62543;SDS011;48597;49.030;1.822;2023-06-19T12:00:44;3.35;;;2.45;;
62543;SDS011;48597;49.030;1.822;2023-06-19T12:03:10;3.45;;;2.58;;
62543;SDS011;48597;49.030;1.822;2023-06-19T12:05:38;2.58;;;2.38;;
62543;SDS011;48597;49.030;1.822;2023-06-19T12:08:03;2.85;;;2.47;;
62543;SDS011;48597;49.030;1.822;2023-06-19T12:10:33;3.63;;;2.72;;
62543;SDS011;48597;49.030;1.822;2023-06-19T12:12:59;3.00;;;2.70;;
62543;SDS011;48597;49.030;1.822;2023-06-19T12:15:24;2.92;;;2.55;;
62543;SDS011;48597;49.030;1.822;2023-06-19T12:17:50;3.03;;;2.72;;
62543;SDS011;48597;49.030;1.822;2023-06-19T12:20:17;3.15;;;2.70;;
62543;SDS011;48597;49.030;1.822;2023-06-19T12:22:42;3.53;;;2.53;;
62543;SDS011;48597;49.030;1.822;2023-06-19T12:25:08;3.20;;;2.47;;
62543;SDS011;48597;49.030;1.822;2023-06-19T12:27:35;2.95;;;2.42;;
62543;SDS011;48597;49.030;1.822;2023-06-19T12:30:00;3.35;;;2.30;;
62543;SDS011;48597;49.030;1.822;2023-06-19T12:32:25;3.35;;;2.45;;
62543;SDS011;48597;49.030;1.822;2023-06-19T12:34:51;3.05;;;2.63;;
62543;SDS011;48597;49.030;1.822;2023-06-19T12:37:19;3.95;;;2.50;;
62543;SDS011;48597;49.030;1.822;2023-06-19T12:39:45;2.67;;;2.42;;
62543;SDS011;48597;49.030;1.822;2023-06-19T12:42:11;3.83;;;2.47;;
62543;SDS011;48597;49.030;1.822;2023-06-19T12:44:40;4.10;;;2.22;;
62543;SDS011;48597;49.030;1.822;2023-06-19T12:47:06;2.55;;;2.17;;
62543;SDS011;48597;49.030;1.822;2023-06-19T12:49:32;4.10;;;2.60;;
62543;SDS011;48597;49.030;1.822;2023-06-19T12:51:57;5.38;;;2.67;;
62543;SDS011;48597;49.030;1.822;2023-06-19T12:54:23;2.95;;;2.35;;
62543;SDS011;48597;49.030;1.822;2023-06-19T12:56:49;2.95;;;2.65;;
62543;SDS011;48597;49.030;1.822;2023-06-19T12:59:14;4.13;;;2.30;;
62543;SDS011;48597;49.030;1.822;2023-06-19T13:01:40;3.58;;;2.30;;
62543;SDS011;48597;49.030;1.822;2023-06-19T13:04:06;5.10;;;2.50;;
62543;SDS011;48597;49.030;1.822;2023-06-19T13:06:32;3.15;;;2.30;;
62543;SDS011;48597;49.030;1.822;2023-06-19T13:08:57;5.03;;;2.42;;
62543;SDS011;48597;49.030;1.822;2023-06-19T13:11:23;3.55;;;2.45;;
62543;SDS011;48597;49.030;1.822;2023-06-19T13:13:48;4.13;;;2.35;;
62543;SDS011;48597;49.030;1.822;2023-06-19T13:16:14;4.07;;;2.28;;
62543;SDS011;48597;49.030;1.822;2023-06-19T13:18:41;3.60;;;2.30;;
62543;SDS011;48597;49.030;1.822;2023-06-19T13:21:06;2.95;;;2.42;;
62543;SDS011;48597;49.030;1.822;2023-06-19T13:23:32;3.25;;;2.40;;
62543;SDS011;48597;49.030;1.822;2023-06-19T13:25:57;4.55;;;2.40;;
62543;SDS011;48597;49.030;1.822;2023-06-19T13:28:23;4.15;;;2.40;;
62543;SDS011;48597;49.030;1.822;2023-06-19T13:30:49;3.10;;;2.33;;
62543;SDS011;48597;49.030;1.822;2023-06-19T13:33:15;4.22;;;2.38;;
62543;SDS011;48597;49.030;1.822;2023-06-19T13:35:41;3.38;;;2.50;;
62543;SDS011;48597;49.030;1.822;2023-06-19T13:38:07;4.35;;;2.50;;
62543;SDS011;48597;49.030;1.822;2023-06-19T13:40:32;2.92;;;2.25;;
62543;SDS011;48597;49.030;1.822;2023-06-19T13:42:58;2.95;;;2.25;;
62543;SDS011;48597;49.030;1.822;2023-06-19T13:45:24;3.30;;;2.40;;
62543;SDS011;48597;49.030;1.822;2023-06-19T13:47:50;3.20;;;2.33;;
62543;SDS011;48597;49.030;1.822;2023-06-19T13:50:16;2.50;;;2.25;;
62543;SDS011;48597;49.030;1.822;2023-06-19T13:52:44;2.55;;;2.30;;
62543;SDS011;48597;49.030;1.822;2023-06-19T13:55:10;2.40;;;2.20;;
62543;SDS011;48597;49.030;1.822;2023-06-19T13:57:36;3.35;;;2.10;;
62543;SDS011;48597;49.030;1.822;2023-06-19T14:00:02;2.40;;;2.20;;
62543;SDS011;48597;49.030;1.822;2023-06-19T14:02:28;4.28;;;2.40;;
62543;SDS011;48597;49.030;1.822;2023-06-19T14:04:54;3.33;;;2.13;;
62543;SDS011;48597;49.030;1.822;2023-06-19T14:07:19;2.78;;;2.33;;
62543;SDS011;48597;49.030;1.822;2023-06-19T14:09:47;2.20;;;2.00;;
62543;SDS011;48597;49.030;1.822;2023-06-19T14:12:13;3.83;;;2.20;;
62543;SDS011;48597;49.030;1.822;2023-06-19T14:14:38;3.25;;;2.50;;
62543;SDS011;48597;49.030;1.822;2023-06-19T14:17:04;2.58;;;2.10;;
62543;SDS011;48597;49.030;1.822;2023-06-19T14:19:29;2.50;;;2.30;;
62543;SDS011;48597;49.030;1.822;2023-06-19T14:21:55;3.08;;;2.22;;
62543;SDS011;48597;49.030;1.822;2023-06-19T14:24:20;2.85;;;2.33;;
62543;SDS011;48597;49.030;1.822;2023-06-19T14:26:45;3.30;;;2.35;;
62543;SDS011;48597;49.030;1.822;2023-06-19T14:29:11;2.60;;;2.40;;
62543;SDS011;48597;49.030;1.822;2023-06-19T14:31:40;2.88;;;2.10;;
62543;SDS011;48597;49.030;1.822;2023-06-19T14:34:05;2.42;;;2.22;;
62543;SDS011;48597;49.030;1.822;2023-06-19T14:36:30;2.67;;;2.30;;
62543;SDS011;48597;49.030;1.822;2023-06-19T14:38:56;2.42;;;2.22;;
62543;SDS011;48597;49.030;1.822;2023-06-19T14:41:21;2.40;;;2.10;;
62543;SDS011;48597;49.030;1.822;2023-06-19T14:43:46;2.72;;;2.30;;
62543;SDS011;48597;49.030;1.822;2023-06-19T14:46:12;4.05;;;2.63;;